Flight Track Log - Related Links

Times and Time Zones

All times are in EDT time to prevent confusion due to time zone crossing. See the SKW6345 flight status page for this flight to view local times or setup timezone preferences in your user account.

Time Position Orientation Groundspeed Altitude Reporting Facility
EDT Latitude Longitude Course Direction KTS MPH feet Rate Location/Type
Tue 02:21:09 PM 45.7222 -111.1631 213° Southwest 184 212 7,900  Level Salt Lake Center
Tue 02:22:00 PM 45.7284 -111.5152 282° West  Level FlightAware Approximate
Tue 02:22:11 PM 45.7006 -111.2367 247° West 202 232 9,800  Level Salt Lake Center
Tue 02:23:00 PM 45.7401 -111.6638 288° West  Level FlightAware Approximate
Tue 02:23:13 PM 45.7122 -111.3375 279° West 235 270 11,500  Level Salt Lake Center
Tue 02:24:00 PM 45.7702 -111.7993 288° West  Level FlightAware Approximate
Tue 02:24:15 PM 45.7281 -111.4747 279° West 274 315 13,200  Level Salt Lake Center
Tue 02:25:00 PM 45.8004 -111.9349 290° West  Level FlightAware Approximate
Tue 02:25:17 PM 45.7422 -111.6039 279° West 314 361 15,000  Level Salt Lake Center
Tue 02:26:19 PM 45.7656 -111.7306 285° West 329 379 16,700 1,742 Climbing Salt Lake Center
Tue 02:27:21 PM 45.7772 -111.8592 277° West 336 387 18,600 1,548 Climbing Salt Lake Center
Tue 02:28:23 PM 45.7189 -111.9564 229° Southwest 323 372 19,900 1,210 Climbing Salt Lake Center
Tue 02:29:25 PM 45.6525 -112.0544 226° Southwest 338 389 21,100 1,355 Climbing Salt Lake Center
Tue 02:30:27 PM 45.5706 -112.1719 225° Southwest 348 400 22,700 1,161 Climbing Salt Lake Center
Tue 02:31:29 PM 45.5003 -112.2719 225° Southwest 354 407 23,500 919 Climbing Salt Lake Center
Tue 02:32:31 PM 45.4278 -112.3750 225° Southwest 366 421 24,600 1,016 Climbing Salt Lake Center
Tue 02:33:33 PM 45.3514 -112.4825 225° Southwest 374 430 25,600 871 Climbing Salt Lake Center
Tue 02:34:35 PM 45.2806 -112.5819 225° Southwest 376 433 26,400 726 Climbing Salt Lake Center
Tue 02:35:37 PM 45.1964 -112.6994 225° Southwest 381 438 27,100 726 Climbing Salt Lake Center
Tue 02:36:39 PM 45.1231 -112.8025 225° Southwest 386 444 27,900 677 Climbing Salt Lake Center
Tue 02:37:41 PM 45.0378 -112.9217 225° Southwest 387 445 28,500 726 Climbing Salt Lake Center
Tue 02:38:43 PM 44.9633 -113.0250 225° Southwest 390 449 29,400 774 Climbing Salt Lake Center
Tue 02:39:45 PM 44.8753 -113.1456 224° Southwest 394 453 30,100 726 Climbing Salt Lake Center
Tue 02:40:47 PM 44.8000 -113.2472 224° Southwest 394 453 30,900 823 Climbing Salt Lake Center
Tue 02:41:49 PM 44.7136 -113.3647 224° Southwest 389 448 31,800 532 Climbing Salt Lake Center
Tue 02:42:51 PM 44.6422 -113.4650 225° Southwest 382 440 32,000 97 Climbing Salt Lake Center
Tue 02:43:53 PM 44.5522 -113.5858 224° Southwest 398 458 32,000  Level Salt Lake Center
Tue 02:44:55 PM 44.4733 -113.6919 224° Southwest 410 472 32,000  Level Salt Lake Center
Tue 02:45:57 PM 44.3819 -113.8142 224° Southwest 409 471 32,000  Level Salt Lake Center
Tue 02:46:59 PM 44.3042 -113.9197 224° Southwest 409 471 32,000  Level Salt Lake Center
Tue 02:48:01 PM 44.2139 -114.0411 224° Southwest 412 474 32,000  Level Salt Lake Center
Tue 02:49:03 PM 44.1347 -114.1450 223° Southwest 410 472 32,000  Level Salt Lake Center
Tue 02:50:04 PM 44.0439 -114.2675 224° Southwest 409 471 32,000  Level Salt Lake Center
Tue 02:51:06 PM 43.9669 -114.3697 224° Southwest 403 464 32,000  Level Salt Lake Center
Tue 02:52:08 PM 43.8872 -114.4731 223° Southwest 405 466 32,000  Level Salt Lake Center
Tue 02:53:10 PM 43.7950 -114.5936 223° Southwest 407 468 32,000  Level Salt Lake Center
Tue 02:54:12 PM 43.7169 -114.6953 223° Southwest 405 466 32,000  Level Salt Lake Center
Tue 02:55:14 PM 43.6247 -114.8150 223° Southwest 405 466 32,000  Level Salt Lake Center
Tue 02:56:16 PM 43.5453 -114.9175 223° Southwest 406 467 32,000  Level Salt Lake Center
Tue 02:57:18 PM 43.4536 -115.0358 223° Southwest 405 466 32,000  Level Salt Lake Center
Tue 02:58:19 PM 43.3750 -115.1369 223° Southwest 404 465 32,000  Level Salt Lake Center
Tue 02:59:21 PM 43.2828 -115.2536 223° Southwest 404 465 32,000  Level Salt Lake Center
Tue 03:00:24 PM 43.2039 -115.3533 223° Southwest 402 463 32,000  Level Salt Lake Center
Tue 03:01:26 PM 43.1122 -115.4689 223° Southwest 401 461 32,000  Level Salt Lake Center
Tue 03:02:28 PM 43.0331 -115.5689 223° Southwest 402 463 32,000  Level Salt Lake Center
Tue 03:03:30 PM 42.9544 -115.6678 223° Southwest 402 463 32,000  Level Salt Lake Center
Tue 03:04:32 PM 42.8617 -115.7831 222° Southwest 402 463 32,000  Level Salt Lake Center
Tue 03:05:33 PM 42.7825 -115.8814 222° Southwest 402 463 32,000  Level Salt Lake Center
Tue 03:06:35 PM 42.6897 -115.9953 222° Southwest 402 463 32,000  Level Salt Lake Center
Tue 03:07:37 PM 42.6114 -116.0944 223° Southwest 402 463 32,000  Level Salt Lake Center
Tue 03:08:39 PM 42.5189 -116.2081 222° Southwest 402 463 32,000  Level Salt Lake Center
Tue 03:09:41 PM 42.4397 -116.3061 222° Southwest 401 461 32,000  Level Salt Lake Center
Tue 03:10:43 PM 42.3750 -116.4181 232° Southwest 398 458 32,000  Level Salt Lake Center
Tue 03:11:45 PM 42.3025 -116.5564 235° Southwest 399 459 32,000  Level Salt Lake Center
Tue 03:12:47 PM 42.2392 -116.6750 234° Southwest 403 464 32,000  Level Salt Lake Center
Tue 03:13:49 PM 42.1667 -116.8097 234° Southwest 403 464 32,000  Level Salt Lake Center
Tue 03:14:51 PM 42.1025 -116.9267 234° Southwest 405 466 32,000  Level Salt Lake Center
Tue 03:15:53 PM 42.0281 -117.0606 233° Southwest 402 463 32,000  Level Salt Lake Center
Tue 03:16:54 PM 41.9650 -117.1756 234° Southwest 401 461 32,000  Level Salt Lake Center
Tue 03:17:56 PM 41.8903 -117.3125 234° Southwest 405 466 32,000  Level Salt Lake Center
Tue 03:18:58 PM 41.8269 -117.4281 234° Southwest 404 465 32,000  Level Salt Lake Center
Tue 03:20:00 PM 41.7517 -117.5625 233° Southwest 403 464 32,000  Level Salt Lake Center
Tue 03:21:02 PM 41.6867 -117.6794 233° Southwest 408 470 32,000  Level Salt Lake Center
Tue 03:22:04 PM 41.6108 -117.8139 233° Southwest 408 470 32,000  Level Salt Lake Center
Tue 03:23:06 PM 41.5453 -117.9308 233° Southwest 410 472 32,000  Level Salt Lake Center
Tue 03:24:08 PM 41.4692 -118.0644 233° Southwest 407 468 32,000  Level Salt Lake Center
Tue 03:25:10 PM 41.4044 -118.1781 233° Southwest 403 464 32,000  Level Salt Lake Center
Tue 03:26:12 PM 41.3394 -118.2911 233° Southwest 403 464 32,000  Level Salt Lake Center
Tue 03:27:14 PM 41.2650 -118.4233 233° Southwest 401 461 32,000  Level Salt Lake Center
Tue 03:28:16 PM 41.1994 -118.5353 232° Southwest 402 463 32,000  Level Salt Lake Center
Tue 03:29:18 PM 41.1247 -118.6661 233° Southwest 400 460 32,000  Level Salt Lake Center
Tue 03:30:19 PM 41.0600 -118.7778 232° Southwest 400 460 32,000  Level Salt Lake Center
Tue 03:31:21 PM 40.9842 -118.9067 232° Southwest 398 458 32,000  Level Salt Lake Center
Tue 03:32:23 PM 40.9203 -119.0158 232° Southwest 395 455 32,000  Level Salt Lake Center
Tue 03:33:25 PM 40.8464 -119.1428 232° Southwest 391 450 32,000  Level Salt Lake Center
Tue 03:34:04 PM 40.8042 -119.2142 232° Southwest 391 450 32,000  Level Oakland Center
Tue 03:35:06 PM 40.7425 -119.3206 233° Southwest 391 450 32,000  Level Oakland Center
Tue 03:36:07 PM 40.6753 -119.4339 232° Southwest 392 451 32,000  Level Oakland Center
Tue 03:37:08 PM 40.6097 -119.5442 232° Southwest 386 444 32,000 -49 Level Oakland Center
Tue 03:38:09 PM 40.5300 -119.6789 232° Southwest 386 444 31,900 -541 Descending Oakland Center
Tue 03:39:10 PM 40.4611 -119.7919 231° Southwest 394 453 30,900 -885 Descending Oakland Center
Tue 03:40:11 PM 40.3925 -119.9067 232° Southwest 399 459 30,100 -439 Descending Oakland Center
Tue 03:41:13 PM 40.3261 -120.0164 232° Southwest 389 448 30,000 -49 Descending Oakland Center
Tue 03:42:14 PM 40.2592 -120.1256 231° Southwest 387 445 30,000  Level Oakland Center
Tue 03:43:15 PM 40.1933 -120.2339 232° Southwest 383 441 30,000  Level Oakland Center
Tue 03:44:16 PM 40.1278 -120.3414 231° Southwest 380 437 30,000  Level Oakland Center
Tue 03:45:17 PM 40.0633 -120.4475 232° Southwest 377 434 30,000  Level Oakland Center
Tue 03:46:18 PM 40.0003 -120.5503 231° Southwest 366 421 30,000  Level Oakland Center
Tue 03:47:19 PM 39.9356 -120.6544 231° Southwest 369 425 30,000  Level Oakland Center
Tue 03:48:21 PM 39.8717 -120.7572 231° Southwest 367 422 30,000 -585 Level Oakland Center
Tue 03:49:22 PM 39.7956 -120.8797 231° Southwest 365 420 28,800 -1,328 Descending Oakland Center
Tue 03:50:23 PM 39.7292 -120.9869 231° Southwest 377 434 27,300 -1,377 Descending Oakland Center
Tue 03:51:24 PM 39.6633 -121.0933 231° Southwest 379 436 26,000 -639 Descending Oakland Center
Tue 03:52:25 PM 39.6006 -121.1919 230° Southwest 372 428 26,000  Level Oakland Center
Tue 03:53:27 PM 39.5322 -121.2892 228° Southwest 365 420 26,000  Level Oakland Center
Tue 03:54:28 PM 39.4525 -121.3750 220° Southwest 361 415 26,000  Level Oakland Center
Tue 03:55:29 PM 39.3775 -121.4600 221° Southwest 359 413 26,000  Level Oakland Center
Tue 03:56:30 PM 39.3017 -121.5439 221° Southwest 359 413 26,000  Level Oakland Center
Tue 03:57:32 PM 39.2275 -121.6258 221° Southwest 354 407 26,000  Level Oakland Center
Tue 03:58:33 PM 39.1417 -121.7228 221° Southwest 344 396 26,000  Level Oakland Center
Tue 03:59:34 PM 39.0711 -121.8006 221° Southwest 338 389 26,000  Level Oakland Center
Tue 04:00:35 PM 39.0000 -121.8783 220° Southwest 336 387 26,000  Level Oakland Center
Tue 04:01:36 PM 38.9300 -121.9544 220° Southwest 334 384 26,000 -146 Level Oakland Center
Tue 04:02:38 PM 38.8597 -122.0317 221° Southwest 334 384 25,700 -537 Descending Oakland Center
Tue 04:03:39 PM 38.7853 -122.1133 221° Southwest 348 400 24,900 -836 Descending Oakland Center
Tue 04:04:40 PM 38.7072 -122.1981 220° Southwest 365 420 24,000 -984 Descending Oakland Center
Tue 04:05:41 PM 38.6161 -122.2961 220° Southwest 374 430 22,900 -976 Descending Oakland Center
Tue 04:06:43 PM 38.5217 -122.3589 207° Southwest 378 435 22,000 -878 Descending Oakland Center
Tue 04:07:44 PM 38.4214 -122.4103 202° Southwest 386 444 21,100 -934 Descending Oakland Center
Tue 04:08:45 PM 38.3258 -122.4594 202° Southwest 371 427 20,100 -1,426 Descending Oakland Center
Tue 04:09:46 PM 38.2308 -122.5075 202° Southwest 367 422 18,200 -2,066 Descending Oakland Center
Tue 04:10:47 PM 38.1331 -122.5572 202° Southwest 376 433 15,900 -2,293 Descending Oakland Center
Tue 04:11:49 PM 38.0381 -122.6058 202° Southwest 372 428 13,500 -2,390 Descending Oakland Center
Tue 04:12:50 PM 37.9292 -122.6603 202° Southwest 367 422 11,000 -1,279 Descending Oakland Center
Tue 04:13:51 PM 37.8403 -122.6106 156° South 390 449 10,900  Descending Oakland Center
Tue 04:14:36 PM 37.7833 -122.5333 133° Southeast 375 432 11,000 61 Climbing Northern Cal TRACON
Tue 04:15:30 PM 37.7167 -122.4667 142° Southeast 292 336 11,000 -400 Level Northern Cal TRACON
Tue 04:16:36 PM 37.7000 -122.3833 104° East 238 274 10,200 -1,524 Descending Northern Cal TRACON
Tue 04:17:36 PM 37.6667 -122.3000 117° Southeast 248 285 7,800 -2,083 Descending Northern Cal TRACON
Tue 04:18:37 PM 37.6333 -122.2167 117° Southeast 242 278 6,000 -1,339 Descending Northern Cal TRACON
Tue 04:19:37 PM 37.6167 -122.1500 107° East 216 249 5,100 -1,261 Descending Northern Cal TRACON
Tue 04:20:36 PM 37.5667 -122.1833 208° Southwest 196 226 3,500 -1,368 Descending Northern Cal TRACON
Tue 04:21:31 PM 37.5667 -122.2333 270° West 156 180 2,500 -1,043 Descending Northern Cal TRACON
Tue 04:22:31 PM 37.5833 -122.2667 302° West 132 152 1,500 -1,000 Descending Northern Cal TRACON

Login

Don't have an account? Register now (free) for customized features, flight alerts, and more!